createdAt,value
2019-02-15T00:00:09.213Z,102957.17
2019-02-15T00:02:37.658Z,102962.36
2019-02-15T00:05:07.227Z,102961.03
2019-02-15T00:07:35.715Z,102960.78
2019-02-15T00:10:05.417Z,102958.32
2019-02-15T00:12:33.911Z,102960.80
2019-02-15T00:15:02.383Z,102953.78
2019-02-15T00:17:34.932Z,102959.80
2019-02-15T00:20:05.714Z,102956.38
2019-02-15T00:22:34.223Z,102950.42
2019-02-15T00:25:02.692Z,102959.80
2019-02-15T00:27:31.183Z,102962.45
2019-02-15T00:29:59.657Z,102959.63
2019-02-15T00:32:28.144Z,102958.72
2019-02-15T00:34:56.623Z,102962.69
2019-02-15T00:37:25.110Z,102957.25
2019-02-15T00:39:53.586Z,102956.67
2019-02-15T00:42:22.256Z,102961.53
2019-02-15T00:44:50.716Z,102959.27
2019-02-15T00:47:26.747Z,102962.08
2019-02-15T00:49:56.915Z,102960.30
2019-02-15T00:52:36.027Z,102960.75
2019-02-15T00:55:07.171Z,102960.34
2019-02-15T00:57:55.718Z,102956.36
2019-02-15T01:00:25.831Z,102955.02
2019-02-15T01:03:01.697Z,102958.48
2019-02-15T01:05:43.788Z,102955.78
2019-02-15T01:08:20.113Z,102954.94
2019-02-15T01:10:50.220Z,102959.27
2019-02-15T01:13:18.869Z,102950.85
2019-02-15T01:15:47.331Z,102949.69
2019-02-15T01:18:15.821Z,102951.02
2019-02-15T01:20:44.292Z,102951.09
2019-02-15T01:23:12.766Z,102949.23
2019-02-15T01:25:42.866Z,102946.05
2019-02-15T01:28:13.005Z,102948.45
2019-02-15T01:30:55.294Z,102943.12
2019-02-15T01:33:28.134Z,102942.16
2019-02-15T01:35:58.243Z,102942.06
2019-02-15T01:38:28.372Z,102946.74
2019-02-15T01:40:58.489Z,102945.42
2019-02-15T01:43:40.213Z,102933.61
2019-02-15T01:46:09.481Z,102940.28
2019-02-15T01:48:37.969Z,102934.82
2019-02-15T01:51:06.444Z,102924.81
2019-02-15T01:53:34.929Z,102920.90
2019-02-15T01:56:03.406Z,102927.52
2019-02-15T01:58:31.889Z,102916.92
2019-02-15T02:01:00.437Z,102918.52
2019-02-15T02:03:28.925Z,102919.64
2019-02-15T02:05:57.402Z,102919.45
2019-02-15T02:08:26.862Z,102916.22
2019-02-15T02:10:55.324Z,102917.00
2019-02-15T02:13:24.198Z,102911.39
2019-02-15T02:15:52.804Z,102913.29
2019-02-15T02:18:21.267Z,102909.41
2019-02-15T02:20:49.894Z,102909.06
2019-02-15T02:23:18.364Z,102911.59
2019-02-15T02:25:46.860Z,102907.73
2019-02-15T02:28:15.334Z,102908.97
2019-02-15T02:30:43.824Z,102900.16
2019-02-15T02:33:12.291Z,102901.03
2019-02-15T02:35:40.783Z,102899.36
2019-02-15T02:38:09.251Z,102901.92
2019-02-15T02:40:37.816Z,102900.16
2019-02-15T02:43:06.297Z,102895.77
2019-02-15T02:45:34.781Z,102902.88
2019-02-15T02:48:03.255Z,102897.61
2019-02-15T02:50:31.749Z,102897.52
2019-02-15T02:53:00.214Z,102892.57
2019-02-15T02:55:28.703Z,102894.84
2019-02-15T02:57:57.162Z,102894.82
2019-02-15T03:00:33.251Z,102896.60
2019-02-15T03:02:55.827Z,102894.95
2019-02-15T03:05:24.308Z,102898.79
2019-02-15T03:07:52.782Z,102895.51
2019-02-15T03:10:21.235Z,102898.16
2019-02-15T03:12:49.716Z,102890.30
2019-02-15T03:15:18.171Z,102886.23
2019-02-15T03:17:46.659Z,102893.64
2019-02-15T03:20:15.108Z,102893.46
2019-02-15T03:22:43.593Z,102891.65
2019-02-15T03:25:12.056Z,102890.72
2019-02-15T03:27:40.542Z,102893.46
2019-02-15T03:30:10.029Z,102889.95
2019-02-15T03:32:38.569Z,102895.88
2019-02-15T03:35:09.102Z,102897.34
2019-02-15T03:37:41.633Z,102897.43
2019-02-15T03:40:11.814Z,102907.78
2019-02-15T03:42:40.304Z,102904.39
2019-02-15T03:45:09.402Z,102899.44
2019-02-15T03:47:37.885Z,102904.25
2019-02-15T03:50:08.493Z,102908.16
2019-02-15T03:52:36.968Z,102908.00
2019-02-15T03:55:06.777Z,102910.34
2019-02-15T03:57:35.263Z,102910.44
2019-02-15T04:00:05.437Z,102906.83
2019-02-15T04:02:33.889Z,102906.59
2019-02-15T04:05:02.374Z,102898.22
2019-02-15T04:07:30.850Z,102904.72
2019-02-15T04:09:59.305Z,102898.01
2019-02-15T04:12:27.786Z,102902.95
2019-02-15T04:14:56.245Z,102903.94
2019-02-15T04:17:24.724Z,102907.82
2019-02-15T04:19:53.183Z,102905.95
2019-02-15T04:22:21.667Z,102904.84
2019-02-15T04:24:50.144Z,102904.34
2019-02-15T04:27:18.646Z,102905.89
2019-02-15T04:29:47.116Z,102912.44
2019-02-15T04:32:15.591Z,102908.99
2019-02-15T04:34:44.057Z,102915.61
2019-02-15T04:37:12.529Z,102912.77
2019-02-15T04:39:41.016Z,102908.87
2019-02-15T04:42:09.496Z,102906.25
2019-02-15T04:44:42.714Z,102904.02
2019-02-15T04:47:08.175Z,102906.69
2019-02-15T04:49:36.625Z,102910.25
2019-02-15T04:52:05.114Z,102919.48
2019-02-15T04:54:33.619Z,102915.42
2019-02-15T04:57:02.098Z,102912.28
2019-02-15T04:59:30.560Z,102910.84
2019-02-15T05:01:59.025Z,102914.28
2019-02-15T05:04:27.516Z,102909.52
2019-02-15T05:06:55.981Z,102915.75
2019-02-15T05:09:24.471Z,102921.42
2019-02-15T05:11:52.944Z,102915.73
2019-02-15T05:14:21.417Z,102919.04
2019-02-15T05:16:49.883Z,102919.14
2019-02-15T05:19:18.364Z,102922.64
2019-02-15T05:21:46.839Z,102924.00
2019-02-15T05:24:15.349Z,102920.20
2019-02-15T05:26:43.795Z,102926.91
2019-02-15T05:29:12.296Z,102917.72
2019-02-15T05:31:40.770Z,102921.99
2019-02-15T05:34:09.253Z,102921.06
2019-02-15T05:36:37.711Z,102911.98
2019-02-15T05:39:08.121Z,102916.02
2019-02-15T05:41:36.582Z,102914.59
2019-02-15T05:44:05.072Z,102917.66
2019-02-15T05:46:33.541Z,102915.48
2019-02-15T05:49:02.030Z,102914.63
2019-02-15T05:51:30.522Z,102915.48
2019-02-15T05:53:58.983Z,102918.98
2019-02-15T05:56:27.464Z,102921.20
2019-02-15T05:58:55.944Z,102922.00
2019-02-15T06:01:25.868Z,102926.83
2019-02-15T06:03:54.347Z,102922.06
2019-02-15T06:06:22.812Z,102922.50
2019-02-15T06:08:51.311Z,102917.97
2019-02-15T06:11:19.796Z,102920.88
2019-02-15T06:13:48.271Z,102924.08
2019-02-15T06:16:16.741Z,102922.59
2019-02-15T06:18:45.234Z,102921.50
2019-02-15T06:21:13.717Z,102925.23
2019-02-15T06:23:42.200Z,102924.77
2019-02-15T06:26:10.688Z,102927.42
2019-02-15T06:28:39.174Z,102925.89
2019-02-15T06:31:07.637Z,102929.86
2019-02-15T06:33:36.128Z,102927.68
2019-02-15T06:36:04.594Z,102930.49
2019-02-15T06:38:35.073Z,102930.89
2019-02-15T06:41:03.305Z,102934.55
2019-02-15T06:43:31.796Z,102937.05
2019-02-15T06:46:00.264Z,102936.37
2019-02-15T06:48:28.753Z,102938.25
2019-02-15T06:50:57.229Z,102931.08
2019-02-15T06:53:25.684Z,102937.88
2019-02-15T06:55:54.167Z,102936.66
2019-02-15T06:58:22.624Z,102946.55
2019-02-15T07:00:52.758Z,102944.69
2019-02-15T07:03:25.523Z,102942.98
2019-02-15T07:05:54.003Z,102947.02
2019-02-15T07:08:22.457Z,102949.36
2019-02-15T07:10:50.945Z,102950.32
2019-02-15T07:13:19.410Z,102959.70
2019-02-15T07:15:48.029Z,102957.23
2019-02-15T07:18:16.438Z,102960.51
2019-02-15T07:20:44.923Z,102952.58
2019-02-15T07:23:13.383Z,102952.61
2019-02-15T07:25:41.860Z,102950.62
2019-02-15T07:28:10.338Z,102953.00
2019-02-15T07:30:38.823Z,102958.52
2019-02-15T07:33:07.304Z,102954.19
2019-02-15T07:35:35.781Z,102957.75
2019-02-15T07:38:04.229Z,102956.06
2019-02-15T07:40:32.720Z,102954.84
2019-02-15T07:43:01.183Z,102960.81
2019-02-15T07:45:29.675Z,102956.10
2019-02-15T07:47:58.644Z,102955.89
2019-02-15T07:50:27.292Z,102954.34
2019-02-15T07:52:55.743Z,102955.95
2019-02-15T07:55:24.230Z,102955.75
2019-02-15T07:57:52.696Z,102947.23
2019-02-15T08:00:21.188Z,102941.30
2019-02-15T08:02:49.633Z,102951.74
2019-02-15T08:05:18.129Z,102947.70
2019-02-15T08:07:46.598Z,102944.47
2019-02-15T08:10:15.091Z,102944.43
2019-02-15T08:12:43.584Z,102938.16
2019-02-15T08:15:12.215Z,102945.69
2019-02-15T08:17:40.695Z,102941.22
2019-02-15T08:20:11.014Z,102943.92
2019-02-15T08:22:39.478Z,102940.41
2019-02-15T08:25:08.906Z,102935.56
2019-02-15T08:27:37.367Z,102942.45
2019-02-15T08:30:11.060Z,102942.37
2019-02-15T08:32:39.528Z,102942.34
2019-02-15T08:35:10.351Z,102942.13
2019-02-15T08:37:38.814Z,102945.12
2019-02-15T08:40:10.116Z,102944.23
2019-02-15T08:42:38.616Z,102938.73
2019-02-15T08:45:10.373Z,102940.81
2019-02-15T08:47:39.868Z,102947.98
2019-02-15T08:50:13.097Z,102950.47
2019-02-15T08:52:41.581Z,102948.33
2019-02-15T08:55:11.956Z,102947.08
2019-02-15T08:57:40.443Z,102949.77
2019-02-15T09:00:13.589Z,102942.61
2019-02-15T09:02:42.058Z,102949.30
2019-02-15T09:05:12.172Z,102947.53
2019-02-15T09:07:40.665Z,102955.49
2019-02-15T09:10:11.363Z,102955.42
2019-02-15T09:12:39.848Z,102960.30
2019-02-15T09:15:11.527Z,102954.45
2019-02-15T09:17:40.097Z,102955.59
2019-02-15T09:20:10.997Z,102957.33
2019-02-15T09:22:39.476Z,102952.02
2019-02-15T09:25:10.013Z,102952.10
2019-02-15T09:27:40.120Z,102961.94
2019-02-15T09:30:11.641Z,102959.53
2019-02-15T09:32:40.132Z,102961.30
2019-02-15T09:35:11.236Z,102960.33
2019-02-15T09:37:39.883Z,102955.76
2019-02-15T09:40:10.079Z,102949.95
2019-02-15T09:42:38.580Z,102955.87
2019-02-15T09:45:10.588Z,102953.13
2019-02-15T09:47:39.072Z,102943.38
2019-02-15T09:50:12.045Z,102946.23
2019-02-15T09:52:39.988Z,102942.92
2019-02-15T09:55:08.514Z,102937.69
2019-02-15T09:57:37.000Z,102942.12
2019-02-15T10:00:08.374Z,102947.79
2019-02-15T10:02:36.852Z,102941.88
2019-02-15T10:05:06.862Z,102935.30
2019-02-15T10:07:35.354Z,102930.69
2019-02-15T10:10:04.662Z,102934.05
2019-02-15T10:12:33.187Z,102924.81
2019-02-15T10:15:01.653Z,102929.48
2019-02-15T10:17:30.168Z,102925.55
2019-02-15T10:19:58.632Z,102932.05
2019-02-15T10:22:27.133Z,102933.12
2019-02-15T10:24:55.596Z,102930.20
2019-02-15T10:27:24.083Z,102933.67
2019-02-15T10:29:52.549Z,102923.84
2019-02-15T10:32:21.037Z,102917.36
2019-02-15T10:34:49.506Z,102916.47
2019-02-15T10:37:17.997Z,102922.13
2019-02-15T10:39:46.474Z,102914.83
2019-02-15T10:42:14.962Z,102912.73
2019-02-15T10:44:43.419Z,102913.41
2019-02-15T10:47:14.333Z,102911.55
2019-02-15T10:49:42.105Z,102907.31
2019-02-15T10:52:10.608Z,102911.02
2019-02-15T10:54:39.072Z,102904.86
2019-02-15T10:57:07.568Z,102908.08
2019-02-15T10:59:36.030Z,102898.77
2019-02-15T11:02:04.508Z,102895.83
2019-02-15T11:04:32.984Z,102886.56
2019-02-15T11:07:01.454Z,102900.55
2019-02-15T11:09:29.928Z,102887.09
2019-02-15T11:11:58.404Z,102883.45
2019-02-15T11:14:26.883Z,102887.37
2019-02-15T11:16:55.354Z,102886.09
2019-02-15T11:19:23.838Z,102882.09
2019-02-15T11:21:52.301Z,102876.06
2019-02-15T11:24:20.769Z,102875.03
2019-02-15T11:26:49.244Z,102868.97
2019-02-15T11:29:17.748Z,102867.42
2019-02-15T11:31:46.224Z,102865.75
2019-02-15T11:34:14.705Z,102870.42
2019-02-15T11:36:43.173Z,102858.73
2019-02-15T11:39:11.770Z,102859.84
2019-02-15T11:41:40.236Z,102859.28
2019-02-15T11:44:08.726Z,102857.09
2019-02-15T11:46:37.334Z,102856.73
2019-02-15T11:49:05.834Z,102858.96
2019-02-15T11:51:34.288Z,102850.87
2019-02-15T11:54:02.768Z,102850.98
2019-02-15T11:56:31.245Z,102850.68
2019-02-15T11:58:59.725Z,102858.27
2019-02-15T12:01:28.192Z,102852.66
2019-02-15T12:03:56.689Z,102847.94
2019-02-15T12:06:25.139Z,102853.64
2019-02-15T12:08:53.618Z,102846.25
2019-02-15T12:11:22.074Z,102856.53
2019-02-15T12:13:50.578Z,102858.44
2019-02-15T12:16:19.049Z,102852.86
2019-02-15T12:18:47.544Z,102848.02
2019-02-15T12:21:16.013Z,102849.80
2019-02-15T12:23:44.978Z,102851.97
2019-02-15T12:26:13.440Z,102850.25
2019-02-15T12:28:41.919Z,102847.78
2019-02-15T12:31:10.382Z,102845.67
2019-02-15T12:33:38.875Z,102846.56
2019-02-15T12:36:07.346Z,102848.41
2019-02-15T12:38:35.843Z,102842.48
2019-02-15T12:41:04.307Z,102844.58
2019-02-15T12:43:32.865Z,102844.70
2019-02-15T12:46:01.359Z,102840.75
2019-02-15T12:48:29.832Z,102832.34
2019-02-15T12:50:58.289Z,102833.73
2019-02-15T12:53:26.807Z,102831.08
2019-02-15T12:55:55.279Z,102828.38
2019-02-15T12:58:24.671Z,102823.89
2019-02-15T13:00:53.170Z,102818.05
2019-02-15T13:03:21.697Z,102814.84
2019-02-15T13:05:50.176Z,102812.66
2019-02-15T13:08:18.642Z,102813.96
2019-02-15T13:10:47.118Z,102810.39
2019-02-15T13:13:15.576Z,102810.81
2019-02-15T13:15:44.234Z,102811.19
2019-02-15T13:18:12.691Z,102810.31
2019-02-15T13:20:41.200Z,102808.08
2019-02-15T13:23:09.827Z,102807.73
2019-02-15T13:25:38.334Z,102803.78
2019-02-15T13:28:06.795Z,102801.94
2019-02-15T13:30:35.285Z,102799.33
2019-02-15T13:33:03.958Z,102802.41
2019-02-15T13:35:32.521Z,102791.59
2019-02-15T13:38:00.992Z,102792.52
2019-02-15T13:40:29.491Z,102784.48
2019-02-15T13:42:57.969Z,102788.19
2019-02-15T13:45:26.449Z,102779.15
2019-02-15T13:47:54.908Z,102782.63
2019-02-15T13:50:23.393Z,102779.19
2019-02-15T13:52:51.861Z,102774.61
2019-02-15T13:55:20.343Z,102774.65
2019-02-15T13:57:48.801Z,102772.50
2019-02-15T14:00:18.765Z,102774.31
2019-02-15T14:02:47.241Z,102768.89
2019-02-15T14:05:15.712Z,102770.73
2019-02-15T14:07:44.195Z,102772.08
2019-02-15T14:10:14.020Z,102768.52
2019-02-15T14:12:42.552Z,102769.90
2019-02-15T14:15:11.883Z,102766.75
2019-02-15T14:17:44.760Z,102761.41
2019-02-15T14:20:12.393Z,102757.75
2019-02-15T14:22:40.871Z,102761.91
2019-02-15T14:25:11.201Z,102758.26
2019-02-15T14:27:39.828Z,102762.25
2019-02-15T14:30:11.301Z,102749.84
2019-02-15T14:32:39.933Z,102752.53
2019-02-15T14:35:10.355Z,102749.94
2019-02-15T14:37:38.823Z,102749.94
2019-02-15T14:40:09.840Z,102742.36
2019-02-15T14:42:38.296Z,102741.98
2019-02-15T14:45:09.127Z,102740.19
2019-02-15T14:47:37.583Z,102740.27
2019-02-15T14:50:08.301Z,102736.69
2019-02-15T14:52:36.757Z,102740.34
2019-02-15T14:55:07.382Z,102731.89
2019-02-15T14:57:35.839Z,102726.94
2019-02-15T15:00:06.115Z,102723.45
2019-02-15T15:02:34.571Z,102717.27
2019-02-15T15:05:03.049Z,102718.19
2019-02-15T15:07:31.516Z,102713.27
2019-02-15T15:10:00.008Z,102709.78
2019-02-15T15:12:29.255Z,102709.28
2019-02-15T15:14:57.740Z,102708.01
2019-02-15T15:17:26.213Z,102705.79
2019-02-15T15:19:54.702Z,102702.72
2019-02-15T15:22:23.164Z,102709.47
2019-02-15T15:24:51.654Z,102705.52
2019-02-15T15:27:20.128Z,102696.58
2019-02-15T15:29:50.491Z,102702.41
2019-02-15T15:32:18.807Z,102692.62
2019-02-15T15:34:47.293Z,102691.77
2019-02-15T15:37:16.740Z,102690.47
2019-02-15T15:39:45.528Z,102696.38
2019-02-15T15:42:13.997Z,102695.98
2019-02-15T15:44:42.476Z,102694.71
2019-02-15T15:47:10.931Z,102685.80
2019-02-15T15:49:39.422Z,102690.22
2019-02-15T15:52:07.881Z,102685.45
2019-02-15T15:54:36.379Z,102689.55
2019-02-15T15:57:04.855Z,102690.75
2019-02-15T15:59:33.342Z,102687.96
2019-02-15T16:02:01.810Z,102691.28
2019-02-15T16:04:30.300Z,102688.10
2019-02-15T16:06:58.781Z,102692.59
2019-02-15T16:09:27.259Z,102683.72
2019-02-15T16:11:55.746Z,102688.20
2019-02-15T16:14:24.216Z,102690.47
2019-02-15T16:16:52.710Z,102686.08
2019-02-15T16:19:21.341Z,102686.17
2019-02-15T16:21:49.853Z,102688.86
2019-02-15T16:24:18.326Z,102681.33
2019-02-15T16:26:46.816Z,102684.99
2019-02-15T16:29:15.301Z,102681.91
2019-02-15T16:31:43.784Z,102685.57
2019-02-15T16:34:12.255Z,102695.48
2019-02-15T16:36:40.758Z,102692.00
2019-02-15T16:39:09.222Z,102689.40
2019-02-15T16:41:37.721Z,102691.71
2019-02-15T16:44:06.209Z,102688.20
2019-02-15T16:46:34.713Z,102684.20
2019-02-15T16:49:03.177Z,102687.44
2019-02-15T16:51:31.661Z,102683.98
2019-02-15T16:54:00.109Z,102688.52
2019-02-15T16:56:28.611Z,102688.59
2019-02-15T16:58:57.076Z,102687.27
2019-02-15T17:01:25.561Z,102685.09
2019-02-15T17:03:54.035Z,102682.41
2019-02-15T17:06:23.384Z,102683.36
2019-02-15T17:08:52.055Z,102680.27
2019-02-15T17:11:20.539Z,102679.91
2019-02-15T17:13:49.012Z,102682.18
2019-02-15T17:16:17.497Z,102680.42
2019-02-15T17:18:51.804Z,102687.63
2019-02-15T17:21:16.170Z,102682.31
2019-02-15T17:23:44.638Z,102685.03
2019-02-15T17:26:13.135Z,102682.81
2019-02-15T17:28:41.589Z,102687.77
2019-02-15T17:31:10.073Z,102677.55
2019-02-15T17:33:38.547Z,102683.37
2019-02-15T17:36:07.031Z,102676.71
2019-02-15T17:38:35.508Z,102673.20
2019-02-15T17:41:04.005Z,102674.54
2019-02-15T17:43:32.467Z,102669.25
2019-02-15T17:46:00.954Z,102665.25
2019-02-15T17:48:29.432Z,102670.17
2019-02-15T17:50:57.920Z,102664.39
2019-02-15T17:53:26.381Z,102665.75
2019-02-15T17:55:54.865Z,102665.34
2019-02-15T17:58:23.326Z,102656.02
2019-02-15T18:00:51.834Z,102656.90
2019-02-15T18:03:20.299Z,102657.34
2019-02-15T18:05:48.767Z,102656.94
2019-02-15T18:08:17.272Z,102664.09
2019-02-15T18:10:45.742Z,102661.41
2019-02-15T18:13:14.226Z,102659.20
2019-02-15T18:15:42.707Z,102659.20
2019-02-15T18:18:11.198Z,102661.00
2019-02-15T18:20:39.671Z,102656.98
2019-02-15T18:23:08.156Z,102664.09
2019-02-15T18:25:36.618Z,102650.30
2019-02-15T18:28:05.129Z,102649.43
2019-02-15T18:30:33.666Z,102649.86
2019-02-15T18:33:02.167Z,102648.09
2019-02-15T18:35:30.658Z,102647.64
2019-02-15T18:37:59.142Z,102644.09
2019-02-15T18:40:27.595Z,102650.34
2019-02-15T18:42:56.112Z,102643.66
2019-02-15T18:45:24.945Z,102643.20
2019-02-15T18:47:53.434Z,102639.64
2019-02-15T18:50:21.882Z,102640.07
2019-02-15T18:52:50.386Z,102643.64
2019-02-15T18:55:18.822Z,102642.73
2019-02-15T18:57:47.321Z,102642.28
2019-02-15T19:00:17.098Z,102642.27
2019-02-15T19:02:48.083Z,102646.27
2019-02-15T19:05:16.550Z,102645.82
2019-02-15T19:07:45.050Z,102640.93
2019-02-15T19:10:18.954Z,102642.29
2019-02-15T19:12:47.494Z,102646.71
2019-02-15T19:15:17.015Z,102640.91
2019-02-15T19:17:45.464Z,102634.70
2019-02-15T19:20:15.402Z,102637.36
2019-02-15T19:22:43.867Z,102626.67
2019-02-15T19:25:14.337Z,102624.91
2019-02-15T19:27:42.821Z,102626.69
2019-02-15T19:30:20.011Z,102618.67
2019-02-15T19:32:48.471Z,102621.33
2019-02-15T19:35:17.057Z,102615.53
2019-02-15T19:37:45.537Z,102609.30
2019-02-15T19:40:16.575Z,102614.66
2019-02-15T19:42:46.285Z,102613.32
2019-02-15T19:45:14.870Z,102611.95
2019-02-15T19:47:43.329Z,102605.30
2019-02-15T19:50:14.156Z,102606.16
2019-02-15T19:52:42.743Z,102603.94
2019-02-15T19:55:11.779Z,102602.61
2019-02-15T19:57:40.219Z,102600.39
2019-02-15T20:00:17.695Z,102599.03
2019-02-15T20:02:46.150Z,102602.55
2019-02-15T20:05:14.818Z,102599.00
2019-02-15T20:07:43.266Z,102600.78
2019-02-15T20:10:14.553Z,102602.11
2019-02-15T20:12:43.017Z,102596.78
2019-02-15T20:15:13.989Z,102597.70
2019-02-15T20:17:42.642Z,102593.66
2019-02-15T20:20:13.708Z,102583.88
2019-02-15T20:22:42.164Z,102586.52
2019-02-15T20:25:12.119Z,102584.33
2019-02-15T20:27:40.603Z,102580.75
2019-02-15T20:30:21.099Z,102577.20
2019-02-15T20:32:49.629Z,102573.20
2019-02-15T20:35:18.114Z,102578.53
2019-02-15T20:37:46.572Z,102577.19
2019-02-15T20:40:15.133Z,102573.58
2019-02-15T20:42:44.152Z,102572.27
2019-02-15T20:45:15.291Z,102568.71
2019-02-15T20:47:43.764Z,102570.05
2019-02-15T20:50:13.409Z,102569.60
2019-02-15T20:52:41.865Z,102570.05
2019-02-15T20:55:12.805Z,102569.14
2019-02-15T20:57:41.433Z,102569.59
2019-02-15T21:00:12.604Z,102569.14
2019-02-15T21:02:41.084Z,102566.91
2019-02-15T21:05:10.729Z,102565.56
2019-02-15T21:07:39.207Z,102562.90
2019-02-15T21:10:10.401Z,102566.02
2019-02-15T21:12:39.693Z,102560.64
2019-02-15T21:15:10.960Z,102557.12
2019-02-15T21:17:39.450Z,102558.87
2019-02-15T21:20:10.656Z,102557.12
2019-02-15T21:22:39.209Z,102546.91
2019-02-15T21:25:13.293Z,102550.00
2019-02-15T21:27:41.773Z,102545.13
2019-02-15T21:30:12.860Z,102548.22
2019-02-15T21:32:41.359Z,102542.88
2019-02-15T21:35:09.833Z,102537.11
2019-02-15T21:37:38.432Z,102539.78
2019-02-15T21:40:12.541Z,102541.55
2019-02-15T21:42:41.072Z,102537.56
2019-02-15T21:45:11.317Z,102531.77
2019-02-15T21:47:39.795Z,102536.68
2019-02-15T21:50:16.664Z,102530.43
2019-02-15T21:52:44.112Z,102527.77
2019-02-15T21:55:12.891Z,102521.53
2019-02-15T21:57:41.373Z,102521.07
2019-02-15T22:00:12.570Z,102517.98
2019-02-15T22:02:41.064Z,102516.64
2019-02-15T22:05:09.589Z,102510.88
2019-02-15T22:07:38.086Z,102511.31
2019-02-15T22:10:09.084Z,102509.09
2019-02-15T22:12:37.649Z,102508.16
2019-02-15T22:15:09.105Z,102511.30
2019-02-15T22:17:37.598Z,102511.72
2019-02-15T22:20:09.422Z,102508.16
2019-02-15T22:22:37.931Z,102510.37
2019-02-15T22:25:07.508Z,102510.37
2019-02-15T22:27:36.270Z,102508.13
2019-02-15T22:30:10.241Z,102508.14
2019-02-15T22:32:38.717Z,102507.24
2019-02-15T22:35:08.020Z,102503.25
2019-02-15T22:37:36.495Z,102498.34
2019-02-15T22:40:24.801Z,102505.48
2019-02-15T22:42:53.296Z,102499.23
2019-02-15T22:45:21.769Z,102499.23
2019-02-15T22:47:50.254Z,102498.36
2019-02-15T22:50:18.712Z,102493.00
2019-02-15T22:52:47.192Z,102495.69
2019-02-15T22:55:15.671Z,102490.34
2019-02-15T22:57:44.152Z,102489.02
2019-02-15T23:00:31.816Z,102486.77
2019-02-15T23:03:00.297Z,102486.33
2019-02-15T23:05:28.750Z,102478.77
2019-02-15T23:07:57.249Z,102481.88
2019-02-15T23:10:25.884Z,102478.77
2019-02-15T23:12:54.370Z,102472.07
2019-02-15T23:15:22.854Z,102477.42
2019-02-15T23:17:51.332Z,102473.86
2019-02-15T23:20:19.792Z,102478.73
2019-02-15T23:22:48.279Z,102472.52
2019-02-15T23:25:16.806Z,102468.53
2019-02-15T23:27:45.292Z,102476.06
2019-02-15T23:30:13.746Z,102467.61
2019-02-15T23:32:42.222Z,102468.95
2019-02-15T23:35:10.792Z,102461.36
2019-02-15T23:37:39.270Z,102471.14
2019-02-15T23:40:07.798Z,102458.27
2019-02-15T23:42:36.281Z,102462.73
2019-02-15T23:45:05.508Z,102455.20
2019-02-15T23:47:33.992Z,102455.61
2019-02-15T23:50:02.480Z,102459.50
2019-02-15T23:52:30.945Z,102452.05
2019-02-15T23:54:59.514Z,102448.05
2019-02-15T23:57:27.961Z,102448.47
2019-02-15T23:59:56.438Z,102443.53
